Time;durP1;ratioP1;P1;durP2;ratioP2;P2;SDS_P1;SDS_P2;PMS_P1;PMS_P2;Temp;Humidity;BMP_temperature;BMP_pressure;BME280_temperature;BME280_humidity;BME280_pressure;Samples;Min_cycle;Max_cycle;Signal;HPM_P1;HPM_P2
2022/03/12 09:32:17;;;;;;;15.82;13.48;;;14.60;10.60;;;;;;4965447;28;20191;-91
2022/03/12 09:34:45;;;;;;;17.88;13.85;;;16.30;8.60;;;;;;5003111;28;20531;-92
2022/03/12 09:37:21;;;;;;;16.42;13.25;;;16.30;8.60;;;;;;5014012;28;20192;-92
2022/03/12 09:39:48;;;;;;;17.25;13.98;;;16.90;9.00;;;;;;4988607;28;20216;-91
2022/03/12 09:42:44;;;;;;;15.50;13.20;;;17.00;9.00;;;;;;4996073;28;20202;-90
2022/03/12 09:45:13;;;;;;;15.52;13.52;;;18.00;7.70;;;;;;4985020;28;20234;-89
2022/03/12 09:47:46;;;;;;;16.00;14.30;;;17.30;9.20;;;;;;5013317;28;20263;-89
2022/03/12 09:50:22;;;;;;;15.10;13.50;;;18.00;7.20;;;;;;4981558;28;20224;-90
2022/03/12 09:52:50;;;;;;;15.48;13.57;;;18.20;7.40;;;;;;5005427;28;20183;-90
2022/03/12 09:55:22;;;;;;;17.98;13.32;;;19.70;6.60;;;;;;5008706;28;20230;-88
2022/03/12 09:57:50;;;;;;;14.35;12.95;;;20.00;5.10;;;;;;4968987;28;20192;-92
2022/03/12 10:00:19;;;;;;;17.77;13.85;;;19.30;5.30;;;;;;4993571;28;20212;-89
2022/03/12 10:02:49;;;;;;;14.85;13.35;;;19.40;5.10;;;;;;4983921;28;20515;-89
2022/03/12 10:05:16;;;;;;;14.77;13.27;;;19.60;5.50;;;;;;4991447;28;20219;-93
2022/03/12 10:07:49;;;;;;;15.30;13.30;;;20.20;4.80;;;;;;4988250;28;20226;-88
2022/03/12 10:10:21;;;;;;;14.57;13.02;;;19.90;5.10;;;;;;4986685;28;20285;-91
2022/03/12 10:12:52;;;;;;;17.73;13.65;;;20.50;4.50;;;;;;4983436;28;20455;-90
2022/03/12 10:15:23;;;;;;;14.90;13.25;;;19.70;5.10;;;;;;4988517;28;20234;-88
2022/03/12 10:18:08;;;;;;;15.63;13.52;;;18.50;6.10;;;;;;4986334;28;20200;-88
2022/03/12 10:20:37;;;;;;;16.95;12.98;;;18.20;6.90;;;;;;4994932;28;20227;-88
2022/03/12 10:23:13;;;;;;;18.90;12.82;;;18.20;7.50;;;;;;4989642;28;20647;-89
2022/03/12 10:25:40;;;;;;;14.65;12.15;;;18.00;6.70;;;;;;4986963;28;20215;-85
2022/03/12 10:28:12;;;;;;;19.88;13.05;;;17.70;6.70;;;;;;4997669;28;20223;-87
2022/03/12 10:30:39;;;;;;;13.85;12.43;;;18.00;6.90;;;;;;4995823;28;20305;-87
2022/03/12 10:33:08;;;;;;;15.30;12.63;;;18.70;6.90;;;;;;4992303;28;20212;-87
2022/03/12 10:35:37;;;;;;;14.52;12.30;;;19.40;5.30;;;;;;4983684;28;20219;-89
2022/03/12 10:41:31;;;;;;;14.70;12.82;;;17.90;7.20;;;;;;4997979;28;20235;-89
2022/03/12 10:43:59;;;;;;;17.45;13.32;;;17.40;9.30;;;;;;4982004;28;20219;-89
2022/03/12 10:46:29;;;;;;;14.75;12.10;;;17.40;7.80;;;;;;4994869;28;20226;-90
2022/03/12 10:48:58;;;;;;;15.65;13.32;;;17.20;9.10;;;;;;4999678;28;20234;-89
2022/03/12 10:51:40;;;;;;;14.57;12.18;;;17.60;8.30;;;;;;4996636;28;20231;-90
2022/03/12 10:54:15;;;;;;;16.60;12.57;;;18.30;6.80;;;;;;4990495;28;20231;-89
2022/03/12 10:56:46;;;;;;;20.00;12.48;;;18.10;7.20;;;;;;4999646;28;20202;-87
2022/03/12 10:59:17;;;;;;;14.57;12.45;;;17.60;7.60;;;;;;5000312;28;20223;-87
2022/03/12 11:02:04;;;;;;;15.43;12.45;;;17.80;7.00;;;;;;5004881;28;20220;-90
2022/03/12 11:04:39;;;;;;;18.23;13.13;;;17.70;7.30;;;;;;4999526;28;20188;-93
2022/03/12 11:07:55;;;;;;;18.23;12.95;;;17.60;7.60;;;;;;4994097;28;20294;-88
2022/03/12 11:10:27;;;;;;;14.30;12.18;;;17.70;7.50;;;;;;4996158;28;20694;-91
2022/03/12 11:12:55;;;;;;;18.92;12.30;;;17.70;7.30;;;;;;4990040;28;20575;-90
2022/03/12 11:15:25;;;;;;;16.63;13.05;;;17.90;7.20;;;;;;4990015;28;20227;-93
2022/03/12 13:08:09;;;;;;;23.05;15.05;;;13.00;13.50;;;;;;4997440;28;20180;-92
2022/03/12 13:28:16;;;;;;;22.77;15.27;;;13.30;12.70;;;;;;4864607;29;20185;-92
2022/03/12 13:42:01;;;;;;;;;;;;;;;;;;;;;
2022/03/12 17:32:59;;;;;;;9.25;5.40;;;8.90;13.50;;;;;;4964092;28;20628;-90
2022/03/12 17:35:29;;;;;;;7.40;5.32;;;8.80;13.40;;;;;;4972165;28;20205;-89
2022/03/12 17:37:57;;;;;;;7.93;5.65;;;8.80;13.80;;;;;;4944027;28;20223;-91
2022/03/12 17:40:27;;;;;;;8.35;5.22;;;8.70;13.60;;;;;;4949130;28;21037;-90
2022/03/12 17:42:59;;;;;;;6.78;4.82;;;8.60;14.00;;;;;;4978571;28;20228;-89
2022/03/12 17:45:32;;;;;;;8.82;5.32;;;8.60;13.80;;;;;;4974298;28;20220;-90
2022/03/12 17:50:33;;;;;;;8.70;5.05;;;8.40;14.00;;;;;;4971409;28;20225;-87
2022/03/12 17:53:11;;;;;;;8.48;4.80;;;8.40;14.00;;;;;;4989592;28;20200;-86
2022/03/12 17:55:39;;;;;;;6.45;4.63;;;8.50;13.90;;;;;;4966614;28;20221;-87
2022/03/12 17:58:08;;;;;;;7.03;4.78;;;8.50;14.10;;;;;;4951081;29;20198;-88
2022/03/12 18:00:37;;;;;;;6.25;4.90;;;8.40;14.00;;;;;;4968006;29;20201;-87
2022/03/12 18:03:05;;;;;;;6.25;4.93;;;8.30;14.20;;;;;;4949543;29;20225;-88
2022/03/12 18:08:55;;;;;;;8.43;5.75;;;8.20;13.90;;;;;;4953404;28;20353;-88
2022/03/12 18:12:00;;;;;;;10.75;5.03;;;8.30;13.90;;;;;;4947397;29;20186;-87
2022/03/12 18:31:44;;;;;;;7.00;5.53;;;7.80;14.50;;;;;;4946662;29;20216;-87
2022/03/12 18:35:03;;;;;;;9.53;5.10;;;7.70;14.90;;;;;;4960400;28;20225;-87
2022/03/12 18:37:31;;;;;;;7.43;5.27;;;7.50;15.10;;;;;;4967261;29;20641;-87
2022/03/12 18:39:58;;;;;;;8.05;4.88;;;7.40;15.20;;;;;;4965064;28;20228;-87
2022/03/12 19:07:27;;;;;;;8.10;6.10;;;6.80;16.70;;;;;;5632093;23;20223;-86
2022/03/12 19:09:56;;;;;;;11.93;7.73;;;6.80;17.30;;;;;;4989534;28;20292;-87
2022/03/12 19:19:17;;;;;;;9.33;6.33;;;6.50;18.10;;;;;;4994042;28;20275;-89
2022/03/12 19:21:45;;;;;;;10.47;6.20;;;6.50;18.70;;;;;;4957265;28;20207;-87
2022/03/12 19:24:16;;;;;;;10.80;6.37;;;6.50;18.70;;;;;;4989118;28;20294;-86
2022/03/12 19:27:24;;;;;;;13.03;7.40;;;6.40;18.40;;;;;;4989953;28;20188;-86
2022/03/12 19:29:53;;;;;;;15.97;8.23;;;6.40;19.10;;;;;;4997902;28;20283;-87
2022/03/12 19:32:21;;;;;;;14.33;7.57;;;6.30;19.60;;;;;;4976795;28;20228;-88
2022/03/12 19:34:50;;;;;;;11.60;6.73;;;6.20;19.90;;;;;;4992915;28;20332;-89
2022/03/12 19:37:18;;;;;;;11.37;7.20;;;6.10;19.10;;;;;;5000105;28;20193;-88
2022/03/12 19:39:46;;;;;;;12.20;6.83;;;6.10;19.00;;;;;;5000193;28;20318;-88
2022/03/12 19:42:31;;;;;;;10.30;7.40;;;6.10;18.20;;;;;;5001271;28;20272;-88
2022/03/12 19:44:58;;;;;;;13.90;7.77;;;6.10;19.10;;;;;;4994337;28;20228;-90
2022/03/12 19:47:25;;;;;;;13.40;7.83;;;6.00;20.00;;;;;;4975030;28;20208;-88
2022/03/12 19:49:54;;;;;;;14.63;9.13;;;6.00;18.90;;;;;;5729623;23;20235;-86
2022/03/12 19:52:36;;;;;;;16.80;9.63;;;5.90;20.00;;;;;;4971637;28;20267;-86
2022/03/12 19:55:07;;;;;;;14.03;9.00;;;5.90;21.30;;;;;;4972860;28;20228;-87
2022/03/12 19:58:24;;;;;;;14.60;9.03;;;5.70;21.80;;;;;;4991524;28;20192;-86
2022/03/12 20:00:51;;;;;;;16.63;9.87;;;5.70;21.80;;;;;;4987453;28;20224;-86
2022/03/12 20:03:26;;;;;;;13.13;9.37;;;5.70;21.90;;;;;;4967591;28;20196;-87
2022/03/12 20:05:56;;;;;;;14.30;9.87;;;5.60;21.80;;;;;;4963569;28;20211;-87
2022/03/12 20:08:23;;;;;;;19.17;10.43;;;5.60;21.80;;;;;;4980007;28;20216;-87
2022/03/12 20:10:54;;;;;;;15.17;9.77;;;5.50;21.30;;;;;;4980041;28;20228;-87
2022/03/12 20:13:40;;;;;;;14.17;8.57;;;5.50;21.40;;;;;;4980337;28;20189;-87
2022/03/12 20:16:07;;;;;;;14.33;9.23;;;5.60;21.30;;;;;;4966934;28;20276;-86
2022/03/12 20:18:37;;;;;;;19.53;11.03;;;5.60;21.90;;;;;;4965311;28;20264;-88
2022/03/12 20:21:10;;;;;;;19.00;10.17;;;5.50;21.70;;;;;;4981346;28;20228;-88
2022/03/12 20:23:37;;;;;;;13.37;9.37;;;5.50;21.80;;;;;;4964944;28;20207;-86
2022/03/12 20:26:07;;;;;;;18.33;9.60;;;5.50;21.70;;;;;;4985178;28;20287;-88
2022/03/12 20:28:34;;;;;;;20.87;9.60;;;5.40;21.60;;;;;;4979611;28;20220;-88
2022/03/12 20:31:02;;;;;;;14.97;9.23;;;5.30;21.60;;;;;;4983026;28;20220;-86
2022/03/12 20:33:30;;;;;;;14.37;8.63;;;5.30;21.60;;;;;;4982331;28;20227;-85
2022/03/12 20:35:57;;;;;;;13.90;8.40;;;5.30;21.60;;;;;;4988439;28;20200;-88
2022/03/12 20:38:24;;;;;;;14.03;8.43;;;5.20;21.50;;;;;;4979041;28;20189;-86
2022/03/12 20:40:53;;;;;;;15.00;10.03;;;5.20;21.50;;;;;;4987547;28;20196;-87
2022/03/12 20:43:24;;;;;;;15.10;9.20;;;5.20;21.70;;;;;;4981329;28;20201;-85
2022/03/12 20:45:52;;;;;;;12.83;8.70;;;5.10;21.50;;;;;;4974277;28;20224;-86
2022/03/12 20:48:19;;;;;;;23.20;14.17;;;5.10;21.40;;;;;;4984588;28;20216;-87
2022/03/12 20:50:49;;;;;;;18.23;9.87;;;5.10;21.70;;;;;;4980217;28;20240;-86
2022/03/12 20:53:17;;;;;;;17.53;8.87;;;5.00;22.80;;;;;;4984442;28;20209;-85
2022/03/12 20:55:46;;;;;;;12.63;8.33;;;5.00;21.30;;;;;;4965377;28;20212;-86
2022/03/12 20:58:20;;;;;;;14.50;7.80;;;5.00;21.80;;;;;;4987166;28;20211;-86
2022/03/12 21:00:49;;;;;;;14.87;9.27;;;4.90;21.30;;;;;;4982002;28;20241;-86
2022/03/12 21:03:17;;;;;;;14.77;9.10;;;4.90;22.70;;;;;;4969495;28;20930;-88
2022/03/12 21:05:44;;;;;;;12.47;8.77;;;4.90;22.70;;;;;;4982589;28;20231;-87
2022/03/12 21:08:11;;;;;;;14.73;8.93;;;4.90;22.60;;;;;;4975937;28;20198;-89
2022/03/12 21:10:38;;;;;;;12.07;8.17;;;4.80;21.20;;;;;;4982153;28;20255;-86
2022/03/12 21:13:09;;;;;;;12.90;8.40;;;4.80;21.20;;;;;;4979349;28;20193;-86
2022/03/12 21:15:37;;;;;;;17.67;8.70;;;4.80;21.20;;;;;;4968251;28;20236;-87
2022/03/12 21:18:07;;;;;;;16.10;9.67;;;4.90;21.30;;;;;;4963469;28;20192;-87
2022/03/12 21:20:36;;;;;;;17.30;9.50;;;4.80;21.20;;;;;;4985558;28;20224;-86
2022/03/12 21:23:22;;;;;;;14.07;9.30;;;4.90;21.30;;;;;;4989476;28;20197;-86
2022/03/12 21:25:49;;;;;;;15.17;10.00;;;4.80;21.20;;;;;;4986072;28;20223;-85
2022/03/12 21:28:41;;;;;;;14.13;10.13;;;4.80;21.20;;;;;;4986623;28;20200;-88
2022/03/12 21:31:08;;;;;;;15.67;9.50;;;4.80;22.70;;;;;;4979288;28;20221;-86
2022/03/12 21:33:40;;;;;;;14.00;9.50;;;4.80;23.00;;;;;;4961604;28;20212;-88
2022/03/12 21:36:10;;;;;;;16.07;9.80;;;4.80;24.00;;;;;;4982358;28;20291;-85
2022/03/12 21:38:38;;;;;;;17.73;10.93;;;4.70;25.50;;;;;;4987653;28;20200;-86
2022/03/12 21:41:07;;;;;;;17.97;11.43;;;4.70;25.10;;;;;;4988542;28;20220;-87
2022/03/12 21:46:56;;;;;;;15.87;10.50;;;4.40;24.40;;;;;;4967111;29;20161;-88
2022/03/12 22:02:21;;;;;;;19.57;11.87;;;4.20;25.40;;;;;;5508427;23;20224;-88
2022/03/12 22:04:49;;;;;;;19.67;12.13;;;4.10;28.00;;;;;;4990363;28;20224;-88
2022/03/12 22:07:22;;;;;;;18.63;11.10;;;4.10;27.30;;;;;;4969961;28;20205;-88
2022/03/12 22:09:49;;;;;;;20.03;11.23;;;4.00;27.60;;;;;;4988070;28;20224;-88
2022/03/12 22:12:17;;;;;;;15.37;10.90;;;4.00;27.00;;;;;;4970020;28;20651;-90
2022/03/12 22:15:03;;;;;;;16.20;10.90;;;3.90;27.60;;;;;;4985806;28;20224;-88
2022/03/12 22:18:22;;;;;;;17.53;11.20;;;3.90;27.90;;;;;;4967325;28;20727;-88
2022/03/12 22:20:53;;;;;;;17.27;11.07;;;3.90;27.90;;;;;;4964292;29;20197;-88
2022/03/12 22:23:21;;;;;;;20.37;11.57;;;3.90;28.10;;;;;;4959939;28;20287;-88
2022/03/12 22:35:00;;;;;;;20.37;11.97;;;3.70;28.00;;;;;;4988521;28;20209;-88
2022/03/12 22:37:51;;;;;;;21.47;12.17;;;3.70;28.70;;;;;;4987624;28;20272;-88
2022/03/12 22:40:21;;;;;;;19.83;11.73;;;3.70;28.90;;;;;;4971852;28;20232;-88
2022/03/12 22:48:51;;;;;;;18.40;10.63;;;3.70;30.10;;;;;;4971980;28;20335;-88
2022/03/12 22:51:40;;;;;;;18.27;11.10;;;3.60;30.00;;;;;;4988432;28;20260;-88
2022/03/12 22:54:08;;;;;;;17.60;10.93;;;3.40;29.60;;;;;;4972507;28;20247;-88
2022/03/12 23:00:48;;;;;;;21.57;11.57;;;3.30;29.40;;;;;;4968344;28;20640;-88
2022/03/12 23:03:23;;;;;;;21.20;12.20;;;3.30;30.00;;;;;;4968113;28;20221;-88
2022/03/12 23:08:55;;;;;;;24.07;12.40;;;3.30;31.20;;;;;;4986021;28;20204;-88
2022/03/12 23:14:10;;;;;;;18.37;11.50;;;3.30;31.40;;;;;;4986662;28;20227;-88
2022/03/12 23:19:23;;;;;;;16.70;10.67;;;3.20;30.70;;;;;;4969532;28;20220;-89
2022/03/12 23:22:17;;;;;;;19.83;12.03;;;3.10;31.00;;;;;;4989345;28;20200;-92
2022/03/12 23:24:46;;;;;;;19.53;10.73;;;3.10;31.60;;;;;;4991897;28;20698;-89
2022/03/12 23:27:32;;;;;;;20.87;11.43;;;3.10;32.50;;;;;;4982207;28;20200;-90
2022/03/12 23:30:36;;;;;;;22.63;9.73;;;3.00;32.00;;;;;;4983424;28;20247;-90
2022/03/12 23:33:04;;;;;;;15.93;9.97;;;2.90;31.50;;;;;;4993875;28;20204;-91
2022/03/12 23:38:26;;;;;;;20.40;10.83;;;2.80;31.80;;;;;;4985567;28;20243;-89
2022/03/12 23:46:51;;;;;;;15.93;9.87;;;2.80;32.00;;;;;;4971199;28;20192;-89
2022/03/12 23:49:27;;;;;;;16.23;10.17;;;2.60;32.20;;;;;;4989149;28;20288;-89
2022/03/12 23:52:20;;;;;;;17.53;8.70;;;2.60;32.00;;;;;;4984099;28;20212;-90
2022/03/12 23:57:39;;;;;;;17.83;9.43;;;2.60;32.00;;;;;;4960973;28;20187;-90
